createdAt,value
2018-04-22T00:00:44.714Z,14.76
2018-04-22T00:03:12.988Z,14.69
2018-04-22T00:05:41.267Z,14.48
2018-04-22T00:08:09.527Z,14.26
2018-04-22T00:10:37.835Z,14.34
2018-04-22T00:13:06.098Z,14.44
2018-04-22T00:15:34.362Z,14.37
2018-04-22T00:18:02.650Z,14.19
2018-04-22T00:20:30.915Z,14.06
2018-04-22T00:22:59.197Z,14.07
2018-04-22T00:25:27.471Z,14.18
2018-04-22T00:27:55.759Z,14.33
2018-04-22T00:30:24.048Z,14.30
2018-04-22T00:32:52.335Z,14.32
2018-04-22T00:35:20.604Z,14.39
2018-04-22T00:37:48.875Z,14.41
2018-04-22T00:40:17.151Z,14.35
2018-04-22T00:42:45.417Z,14.25
2018-04-22T00:45:13.694Z,14.28
2018-04-22T00:47:41.968Z,14.20
2018-04-22T00:50:10.253Z,14.04
2018-04-22T00:52:38.528Z,14.15
2018-04-22T00:55:06.812Z,14.15
2018-04-22T00:57:35.085Z,14.13
2018-04-22T01:00:03.346Z,14.16
2018-04-22T01:02:31.626Z,14.08
2018-04-22T01:04:59.898Z,14.00
2018-04-22T01:07:28.182Z,13.92
2018-04-22T01:09:56.534Z,13.94
2018-04-22T01:12:24.800Z,13.84
2018-04-22T01:14:53.070Z,13.80
2018-04-22T01:17:21.347Z,13.84
2018-04-22T01:19:49.636Z,13.80
2018-04-22T01:22:17.903Z,13.76
2018-04-22T01:24:46.168Z,13.70
2018-04-22T01:27:15.216Z,13.73
2018-04-22T01:29:43.487Z,13.62
2018-04-22T01:32:12.538Z,13.40
2018-04-22T01:34:41.567Z,13.21
2018-04-22T01:37:09.840Z,13.15
2018-04-22T01:39:38.118Z,13.09
2018-04-22T01:42:06.386Z,13.02
2018-04-22T01:44:34.928Z,13.11
2018-04-22T01:47:03.988Z,13.13
2018-04-22T01:49:32.263Z,13.18
2018-04-22T01:52:00.559Z,13.18
2018-04-22T01:54:28.846Z,13.20
2018-04-22T01:56:57.104Z,13.17
2018-04-22T01:59:25.381Z,13.11
2018-04-22T02:01:54.405Z,13.09
2018-04-22T02:04:23.428Z,13.06
2018-04-22T02:06:51.716Z,13.13
2018-04-22T02:09:19.971Z,13.05
2018-04-22T02:11:48.247Z,13.08
2018-04-22T02:14:16.513Z,12.99
2018-04-22T02:16:45.564Z,12.98
2018-04-22T02:19:13.840Z,13.00
2018-04-22T02:21:42.106Z,13.04
2018-04-22T02:24:11.158Z,13.10
2018-04-22T02:26:39.426Z,13.03
2018-04-22T02:29:08.492Z,12.98
2018-04-22T02:31:36.754Z,13.00
2018-04-22T02:34:05.019Z,13.04
2018-04-22T02:36:33.318Z,12.97
2018-04-22T02:39:01.584Z,12.91
2018-04-22T02:41:29.867Z,12.79
2018-04-22T02:43:58.150Z,12.80
2018-04-22T02:46:26.419Z,12.43
2018-04-22T02:48:54.699Z,12.44
2018-04-22T02:51:22.964Z,12.52
2018-04-22T02:53:51.248Z,12.57
2018-04-22T02:56:19.512Z,12.57
2018-04-22T02:58:47.778Z,12.66
2018-04-22T03:01:16.051Z,12.61
2018-04-22T03:03:44.313Z,12.51
2018-04-22T03:06:12.588Z,12.43
2018-04-22T03:08:40.843Z,12.39
2018-04-22T03:11:09.121Z,12.41
2018-04-22T03:13:37.395Z,12.48
2018-04-22T03:16:05.733Z,12.50
2018-04-22T03:18:34.072Z,12.39
2018-04-22T03:21:02.331Z,12.29
2018-04-22T03:23:30.602Z,12.32
2018-04-22T03:25:58.861Z,12.33
2018-04-22T03:28:27.993Z,12.38
2018-04-22T03:30:56.287Z,12.35
2018-04-22T03:33:24.653Z,12.25
2018-04-22T03:35:52.927Z,12.06
2018-04-22T03:38:21.199Z,12.16
2018-04-22T03:40:49.463Z,12.18
2018-04-22T03:43:17.750Z,12.13
2018-04-22T03:45:46.010Z,12.09
2018-04-22T03:48:14.298Z,12.02
2018-04-22T03:50:42.563Z,11.95
2018-04-22T03:53:10.890Z,11.91
2018-04-22T03:55:39.167Z,11.94
2018-04-22T03:58:07.514Z,12.05
2018-04-22T04:00:35.778Z,12.14
2018-04-22T04:03:04.080Z,12.23
2018-04-22T04:05:32.354Z,12.15
2018-04-22T04:08:00.621Z,12.17
2018-04-22T04:10:28.907Z,12.21
2018-04-22T04:12:57.191Z,12.30
2018-04-22T04:15:25.464Z,12.36
2018-04-22T04:21:21.323Z,12.02
2018-04-22T04:30:28.512Z,12.21
2018-04-22T04:32:56.789Z,12.24
2018-04-22T04:35:25.052Z,12.37
2018-04-22T04:37:53.334Z,12.42
2018-04-22T04:40:21.634Z,12.49
2018-04-22T04:42:49.901Z,12.50
2018-04-22T04:45:18.278Z,12.52
2018-04-22T04:47:46.550Z,12.52
2018-04-22T04:50:14.832Z,12.64
2018-04-22T04:52:43.103Z,12.72
2018-04-22T04:55:11.368Z,12.61
2018-04-22T04:57:39.664Z,12.79
2018-04-22T05:00:07.925Z,12.81
2018-04-22T05:02:36.210Z,12.81
2018-04-22T05:05:04.475Z,12.86
2018-04-22T05:07:32.763Z,12.86
2018-04-22T05:10:01.027Z,12.93
2018-04-22T05:12:29.301Z,12.96
2018-04-22T05:14:57.601Z,12.95
2018-04-22T05:17:25.865Z,12.96
2018-04-22T05:19:54.140Z,12.92
2018-04-22T05:22:22.404Z,12.99
2018-04-22T05:24:50.671Z,13.01
2018-04-22T05:27:19.734Z,13.08
2018-04-22T05:29:48.002Z,13.16
2018-04-22T05:32:16.346Z,13.25
2018-04-22T05:34:44.644Z,13.26
2018-04-22T05:37:12.999Z,13.35
2018-04-22T05:39:41.297Z,13.38
2018-04-22T05:42:09.551Z,13.56
2018-04-22T05:44:37.843Z,13.59
2018-04-22T05:47:06.134Z,13.68
2018-04-22T05:49:34.423Z,13.78
2018-04-22T05:52:02.696Z,13.87
2018-04-22T05:54:30.971Z,13.97
2018-04-22T05:57:00.008Z,14.12
2018-04-22T05:59:28.308Z,14.29
2018-04-22T06:01:57.337Z,14.25
2018-04-22T06:04:25.678Z,14.37
2018-04-22T06:06:53.958Z,14.46
2018-04-22T06:09:22.223Z,14.58
2018-04-22T06:11:50.493Z,14.61
2018-04-22T06:14:18.787Z,14.72
2018-04-22T06:16:47.116Z,14.71
2018-04-22T06:19:15.399Z,14.85
2018-04-22T06:21:44.532Z,14.88
2018-04-22T06:24:12.790Z,14.89
2018-04-22T06:26:41.081Z,15.08
2018-04-22T06:29:09.350Z,15.24
2018-04-22T06:31:37.659Z,15.14
2018-04-22T06:34:05.928Z,15.17
2018-04-22T06:36:34.202Z,15.28
2018-04-22T06:39:02.479Z,15.26
2018-04-22T06:41:30.740Z,15.48
2018-04-22T06:43:59.035Z,15.48
2018-04-22T06:46:27.300Z,15.52
2018-04-22T06:48:55.551Z,15.72
2018-04-22T06:51:23.855Z,15.81
2018-04-22T06:53:52.123Z,15.75
2018-04-22T06:56:21.403Z,15.97
2018-04-22T06:58:49.729Z,16.06
2018-04-22T07:01:17.949Z,16.10
2018-04-22T07:03:46.983Z,16.22
2018-04-22T07:06:15.243Z,16.49
2018-04-22T07:08:43.530Z,16.71
2018-04-22T07:11:11.811Z,16.85
2018-04-22T07:13:40.083Z,17.06
2018-04-22T07:16:08.352Z,17.22
2018-04-22T07:18:36.626Z,17.42
2018-04-22T07:21:04.905Z,17.44
2018-04-22T07:23:33.169Z,17.54
2018-04-22T07:26:01.438Z,17.53
2018-04-22T07:28:29.722Z,17.73
2018-04-22T07:30:57.978Z,17.84
2018-04-22T07:33:27.034Z,17.96
2018-04-22T07:35:55.295Z,17.97
2018-04-22T07:38:23.661Z,17.85
2018-04-22T07:40:51.933Z,17.99
2018-04-22T07:43:20.207Z,18.15
2018-04-22T07:45:48.471Z,18.23
2018-04-22T07:48:16.776Z,18.42
2018-04-22T07:50:45.067Z,18.67
2018-04-22T07:53:13.425Z,18.55
2018-04-22T07:55:41.679Z,18.85
2018-04-22T07:58:09.961Z,19.12
2018-04-22T08:00:38.222Z,19.12
2018-04-22T08:03:06.630Z,19.23
2018-04-22T08:05:34.914Z,19.15
2018-04-22T08:08:03.208Z,19.27
2018-04-22T08:10:31.511Z,19.52
2018-04-22T08:12:59.831Z,19.68
2018-04-22T08:15:28.107Z,19.89
2018-04-22T08:17:56.389Z,19.89
2018-04-22T08:20:24.671Z,20.01
2018-04-22T08:22:52.936Z,20.04
2018-04-22T08:25:21.218Z,20.29
2018-04-22T08:27:49.479Z,20.23
2018-04-22T08:30:19.714Z,20.24
2018-04-22T08:32:47.988Z,20.45
2018-04-22T08:35:16.272Z,20.19
2018-04-22T08:37:44.534Z,20.48
2018-04-22T08:40:12.802Z,20.79
2018-04-22T08:42:41.102Z,21.09
2018-04-22T08:45:09.356Z,21.30
2018-04-22T08:47:37.750Z,21.18
2018-04-22T08:50:06.011Z,21.33
2018-04-22T08:52:34.295Z,21.43
2018-04-22T08:55:02.583Z,21.64
2018-04-22T08:57:30.850Z,22.08
2018-04-22T08:59:59.170Z,22.24
2018-04-22T09:02:27.444Z,22.03
2018-04-22T09:04:55.779Z,22.03
2018-04-22T09:07:24.089Z,21.87
2018-04-22T09:09:52.344Z,21.48
2018-04-22T09:12:20.631Z,21.60
2018-04-22T09:14:48.894Z,21.65
2018-04-22T09:17:17.183Z,21.80
2018-04-22T09:19:45.463Z,22.01
2018-04-22T09:22:13.744Z,22.22
2018-04-22T09:24:42.093Z,22.63
2018-04-22T09:27:10.398Z,22.85
2018-04-22T09:29:38.747Z,22.84
2018-04-22T09:32:07.040Z,23.00
2018-04-22T09:34:35.314Z,23.15
2018-04-22T09:37:03.594Z,22.78
2018-04-22T09:39:31.871Z,22.81
2018-04-22T09:42:00.163Z,22.77
2018-04-22T09:44:28.454Z,22.92
2018-04-22T09:46:56.787Z,22.92
2018-04-22T09:49:25.072Z,23.02
2018-04-22T09:51:53.343Z,23.07
2018-04-22T09:54:21.639Z,23.16
2018-04-22T09:56:50.335Z,22.81
2018-04-22T09:59:18.606Z,22.84
2018-04-22T10:01:46.892Z,22.85
2018-04-22T10:04:15.160Z,22.85
2018-04-22T10:06:43.523Z,22.91
2018-04-22T10:09:11.796Z,22.95
2018-04-22T10:11:40.074Z,23.22
2018-04-22T10:14:08.342Z,23.28
2018-04-22T10:16:36.667Z,23.57
2018-04-22T10:19:04.983Z,23.70
2018-04-22T10:21:33.264Z,23.74
2018-04-22T10:24:01.544Z,23.92
2018-04-22T10:26:29.819Z,24.00
2018-04-22T10:28:58.114Z,24.09
2018-04-22T10:31:26.412Z,24.17
2018-04-22T10:33:54.689Z,24.24
2018-04-22T10:36:24.471Z,24.49
2018-04-22T10:38:52.835Z,24.55
2018-04-22T10:41:21.134Z,24.82
2018-04-22T10:43:49.490Z,24.97
2018-04-22T10:46:17.777Z,25.13
2018-04-22T10:48:46.044Z,25.29
2018-04-22T10:51:14.328Z,25.14
2018-04-22T10:53:42.599Z,25.25
2018-04-22T10:56:10.869Z,25.30
2018-04-22T10:58:39.161Z,25.40
2018-04-22T11:01:07.463Z,25.80
2018-04-22T11:03:35.734Z,25.74
2018-04-22T11:06:04.005Z,25.69
2018-04-22T11:08:32.377Z,25.80
2018-04-22T11:11:00.648Z,25.88
2018-04-22T11:13:28.931Z,26.12
2018-04-22T11:15:57.216Z,26.07
2018-04-22T11:18:25.479Z,25.83
2018-04-22T11:20:54.563Z,25.78
2018-04-22T11:23:23.002Z,26.08
2018-04-22T11:25:51.315Z,26.33
2018-04-22T11:28:19.598Z,26.65
2018-04-22T11:30:47.875Z,26.94
2018-04-22T11:33:16.135Z,27.13
2018-04-22T11:35:44.426Z,27.04
2018-04-22T11:38:12.692Z,27.54
2018-04-22T11:40:40.954Z,27.37
2018-04-22T11:43:09.267Z,27.56
2018-04-22T11:45:37.623Z,27.91
2018-04-22T11:48:06.008Z,28.24
2018-04-22T11:50:34.286Z,28.38
2018-04-22T11:53:02.669Z,28.35
2018-04-22T11:55:30.940Z,28.53
2018-04-22T11:57:59.220Z,28.57
2018-04-22T12:00:27.487Z,28.84
2018-04-22T12:02:55.763Z,29.12
2018-04-22T12:05:24.068Z,29.17
2018-04-22T12:07:52.419Z,29.20
2018-04-22T12:10:20.703Z,29.39
2018-04-22T12:12:48.985Z,29.21
2018-04-22T12:15:17.352Z,29.40
2018-04-22T12:17:45.612Z,29.41
2018-04-22T12:20:13.888Z,29.51
2018-04-22T12:22:43.003Z,29.33
2018-04-22T12:25:11.287Z,29.67
2018-04-22T12:27:39.654Z,30.14
2018-04-22T12:30:07.934Z,29.97
2018-04-22T12:32:36.243Z,30.39
2018-04-22T12:35:04.594Z,30.51
2018-04-22T12:37:32.968Z,30.50
2018-04-22T12:40:01.273Z,30.38
2018-04-22T12:42:29.593Z,30.42
2018-04-22T12:44:58.634Z,30.47
2018-04-22T12:47:26.923Z,30.59
2018-04-22T12:49:55.203Z,30.84
2018-04-22T12:52:23.542Z,30.84
2018-04-22T12:54:51.879Z,31.14
2018-04-22T12:57:20.099Z,31.52
2018-04-22T12:59:48.355Z,31.95
2018-04-22T13:02:16.647Z,32.42
2018-04-22T13:04:44.963Z,32.10
2018-04-22T13:07:13.306Z,32.30
2018-04-22T13:09:41.583Z,32.77
2018-04-22T13:12:09.848Z,32.53
2018-04-22T13:14:38.162Z,32.71
2018-04-22T13:17:06.435Z,33.04
2018-04-22T13:19:34.790Z,32.71
2018-04-22T13:22:03.050Z,33.01
2018-04-22T13:24:31.343Z,33.46
2018-04-22T13:26:59.719Z,33.64
2018-04-22T13:29:27.982Z,34.00
2018-04-22T13:31:56.297Z,34.46
2018-04-22T13:34:24.570Z,34.24
2018-04-22T13:36:52.851Z,34.61
2018-04-22T13:39:21.133Z,34.48
2018-04-22T13:41:49.400Z,34.42
2018-04-22T13:44:17.678Z,35.05
2018-04-22T13:46:45.939Z,35.67
2018-04-22T13:49:14.245Z,36.23
2018-04-22T13:51:42.507Z,36.57
2018-04-22T13:54:10.796Z,37.19
2018-04-22T13:56:39.145Z,36.76
2018-04-22T13:59:07.408Z,36.74
2018-04-22T14:01:35.678Z,35.85
2018-04-22T14:04:03.998Z,36.12
2018-04-22T14:06:32.343Z,35.48
2018-04-22T14:09:00.599Z,35.19
2018-04-22T14:11:28.931Z,34.41
2018-04-22T14:13:57.214Z,33.72
2018-04-22T14:16:25.528Z,32.55
2018-04-22T14:18:54.575Z,31.37
2018-04-22T14:21:22.854Z,30.84
2018-04-22T14:23:51.160Z,30.24
2018-04-22T14:26:20.190Z,29.99
2018-04-22T14:28:48.464Z,30.14
2018-04-22T14:31:16.741Z,30.04
2018-04-22T14:33:45.021Z,30.09
2018-04-22T14:36:13.319Z,30.11
2018-04-22T14:38:41.599Z,30.07
2018-04-22T14:41:09.882Z,29.78
2018-04-22T14:43:38.165Z,29.41
2018-04-22T14:46:14.261Z,29.26
2018-04-22T14:49:01.050Z,28.91
2018-04-22T14:51:29.330Z,28.62
2018-04-22T14:53:58.362Z,28.54
2018-04-22T14:56:26.623Z,28.44
2018-04-22T14:58:54.900Z,28.18
2018-04-22T15:01:23.168Z,27.99
2018-04-22T15:03:52.211Z,27.79
2018-04-22T15:06:20.506Z,27.32
2018-04-22T15:08:48.787Z,24.06
2018-04-22T15:11:17.070Z,22.70
2018-04-22T15:13:45.352Z,22.32
2018-04-22T15:16:13.675Z,22.00
2018-04-22T15:18:41.939Z,21.55
2018-04-22T15:21:10.220Z,21.25
2018-04-22T15:23:38.485Z,21.21
2018-04-22T15:26:06.768Z,21.07
2018-04-22T15:28:35.051Z,20.94
2018-04-22T15:31:03.317Z,20.97
2018-04-22T15:33:31.594Z,21.03
2018-04-22T15:35:59.870Z,20.81
2018-04-22T15:38:28.183Z,21.06
2018-04-22T15:40:56.451Z,21.17
2018-04-22T15:43:24.739Z,21.35
2018-04-22T15:45:53.023Z,21.71
2018-04-22T15:48:21.286Z,21.56
2018-04-22T15:50:50.380Z,21.57
2018-04-22T15:53:18.642Z,21.25
2018-04-22T15:55:46.918Z,21.46
2018-04-22T15:58:15.236Z,21.45
2018-04-22T16:00:43.548Z,21.43
2018-04-22T16:03:11.816Z,21.50
2018-04-22T16:05:40.864Z,21.54
2018-04-22T16:08:09.134Z,21.48
2018-04-22T16:10:37.395Z,21.34
2018-04-22T16:13:05.698Z,21.45
2018-04-22T16:15:33.967Z,21.57
2018-04-22T16:18:02.248Z,21.37
2018-04-22T16:20:30.515Z,21.68
2018-04-22T16:22:59.603Z,21.79
2018-04-22T16:25:27.876Z,21.83
2018-04-22T16:27:56.166Z,21.59
2018-04-22T16:30:24.421Z,21.59
2018-04-22T16:32:52.689Z,20.93
2018-04-22T16:35:21.007Z,20.29
2018-04-22T16:37:49.239Z,20.50
2018-04-22T16:40:17.527Z,20.69
2018-04-22T16:42:45.786Z,20.84
2018-04-22T16:45:14.052Z,21.16
2018-04-22T16:47:42.360Z,21.45
2018-04-22T16:50:10.611Z,21.42
2018-04-22T16:52:38.902Z,21.02
2018-04-22T16:55:07.171Z,20.82
2018-04-22T16:57:35.437Z,21.22
2018-04-22T17:00:03.728Z,21.15
2018-04-22T17:02:31.982Z,21.18
2018-04-22T17:05:01.031Z,21.18
2018-04-22T17:07:29.304Z,21.10
2018-04-22T17:09:57.614Z,21.29
2018-04-22T17:12:25.891Z,21.44
2018-04-22T17:14:54.975Z,21.14
2018-04-22T17:17:23.223Z,21.27
2018-04-22T17:19:51.496Z,21.40
2018-04-22T17:22:19.790Z,21.56
2018-04-22T17:24:48.837Z,21.76
2018-04-22T17:27:17.147Z,21.84
2018-04-22T17:29:45.445Z,21.81
2018-04-22T17:32:13.753Z,21.50
2018-04-22T17:34:42.808Z,21.31
2018-04-22T17:37:11.108Z,20.34
2018-04-22T17:39:39.405Z,20.16
2018-04-22T17:42:08.524Z,19.99
2018-04-22T17:44:36.962Z,20.08
2018-04-22T17:47:06.162Z,19.90
2018-04-22T17:49:34.706Z,19.73
2018-04-22T17:52:03.128Z,19.53
2018-04-22T17:54:32.932Z,19.38
2018-04-22T17:57:01.616Z,19.34
2018-04-22T17:59:30.322Z,19.32
2018-04-22T18:01:58.920Z,19.34
2018-04-22T18:04:27.213Z,19.28
2018-04-22T18:06:56.024Z,19.26
2018-04-22T18:09:25.652Z,19.24
2018-04-22T18:11:54.060Z,18.98
2018-04-22T18:14:23.101Z,18.99
2018-04-22T18:16:52.278Z,19.20
2018-04-22T18:19:21.655Z,19.31
2018-04-22T18:21:50.921Z,19.58
2018-04-22T18:24:20.107Z,19.72
2018-04-22T18:26:49.458Z,19.79
2018-04-22T18:29:19.512Z,19.71
2018-04-22T18:31:48.928Z,19.83
2018-04-22T18:34:18.105Z,19.97
2018-04-22T18:36:48.949Z,20.05
2018-04-22T18:39:18.178Z,20.08
2018-04-22T18:41:48.828Z,20.11
2018-04-22T18:44:18.140Z,20.01
2018-04-22T18:46:49.536Z,19.64
2018-04-22T18:49:18.987Z,19.51
2018-04-22T18:51:49.629Z,19.60
2018-04-22T18:54:18.901Z,19.54
2018-04-22T18:56:49.932Z,19.63
2018-04-22T18:59:19.285Z,19.39
2018-04-22T19:01:49.801Z,18.78
2018-04-22T19:04:19.919Z,18.92
2018-04-22T19:06:50.393Z,18.99
2018-04-22T19:09:19.823Z,18.76
2018-04-22T19:11:49.286Z,18.72
2018-04-22T19:14:18.637Z,18.72
2018-04-22T19:16:49.810Z,18.12
2018-04-22T19:19:19.990Z,17.61
2018-04-22T19:21:49.290Z,17.85
2018-04-22T19:24:18.639Z,17.87
2018-04-22T19:26:49.951Z,17.86
2018-04-22T19:29:19.492Z,17.95
2018-04-22T19:31:50.043Z,18.07
2018-04-22T19:34:19.966Z,18.17
2018-04-22T19:36:49.749Z,18.38
2018-04-22T19:39:20.222Z,18.53
2018-04-22T19:41:49.637Z,18.64
2018-04-22T19:44:19.039Z,18.66
2018-04-22T19:46:50.026Z,18.56
2018-04-22T19:49:19.360Z,18.09
2018-04-22T19:51:50.010Z,18.10
2018-04-22T19:54:19.428Z,18.15
2018-04-22T19:56:49.956Z,18.14
2018-04-22T19:59:19.410Z,18.15
2018-04-22T20:01:50.204Z,18.22
2018-04-22T20:04:20.416Z,18.27
2018-04-22T20:06:51.209Z,18.30
2018-04-22T20:09:22.235Z,18.33
2018-04-22T20:11:51.630Z,18.25
2018-04-22T20:14:21.028Z,18.30
2018-04-22T20:16:50.754Z,18.26
2018-04-22T20:19:20.197Z,18.18
2018-04-22T20:21:51.422Z,18.22
2018-04-22T20:24:20.684Z,18.27
2018-04-22T20:26:50.852Z,18.18
2018-04-22T20:29:20.299Z,18.16
2018-04-22T20:31:50.811Z,18.06
2018-04-22T20:34:20.098Z,17.84
2018-04-22T20:36:49.366Z,17.94
2018-04-22T20:39:18.660Z,17.95
2018-04-22T20:41:48.019Z,17.94
2018-04-22T20:44:18.470Z,18.00
2018-04-22T20:46:48.727Z,18.00
2018-04-22T20:49:17.934Z,17.97
2018-04-22T20:51:47.575Z,17.90
2018-04-22T20:54:16.293Z,17.85
2018-04-22T20:56:45.380Z,17.69
2018-04-22T20:59:13.651Z,17.83
2018-04-22T21:01:41.913Z,17.94
2018-04-22T21:04:10.200Z,17.74
2018-04-22T21:06:38.474Z,17.85
2018-04-22T21:09:06.743Z,17.91
2018-04-22T21:11:35.036Z,17.90
2018-04-22T21:14:03.308Z,17.87
2018-04-22T21:16:31.576Z,17.90
2018-04-22T21:18:59.850Z,17.76
2018-04-22T21:21:28.116Z,17.82
2018-04-22T21:23:57.198Z,17.83
2018-04-22T21:26:26.227Z,17.84
2018-04-22T21:28:54.501Z,17.86
2018-04-22T21:31:22.789Z,17.94
2018-04-22T21:33:51.062Z,17.82
2018-04-22T21:36:19.328Z,17.78
2018-04-22T21:38:47.613Z,17.77
2018-04-22T21:41:15.904Z,17.80
2018-04-22T21:43:44.183Z,17.82
2018-04-22T21:46:12.461Z,17.80
2018-04-22T21:48:40.724Z,17.77
2018-04-22T21:51:09.003Z,17.71
2018-04-22T21:53:37.290Z,17.57
2018-04-22T21:56:05.710Z,17.45
2018-04-22T21:58:33.935Z,17.53
2018-04-22T22:01:02.211Z,17.50
2018-04-22T22:03:31.259Z,17.53
2018-04-22T22:06:00.307Z,17.50
2018-04-22T22:08:29.350Z,17.45
2018-04-22T22:10:58.375Z,17.32
2018-04-22T22:13:26.642Z,17.24
2018-04-22T22:15:54.931Z,17.32
2018-04-22T22:18:23.195Z,17.36
2018-04-22T22:20:51.463Z,17.36
2018-04-22T22:23:19.746Z,17.29
2018-04-22T22:25:48.006Z,17.30
2018-04-22T22:28:17.039Z,17.15
2018-04-22T22:30:45.325Z,17.09
2018-04-22T22:33:13.593Z,17.02
2018-04-22T22:35:41.884Z,16.98
2018-04-22T22:38:10.183Z,16.85
2018-04-22T22:40:38.474Z,16.57
2018-04-22T22:43:07.503Z,16.16
2018-04-22T22:45:35.807Z,16.07
2018-04-22T22:48:04.072Z,15.95
2018-04-22T22:50:33.114Z,16.06
2018-04-22T22:53:02.147Z,16.09
2018-04-22T22:55:30.441Z,16.21
2018-04-22T22:57:58.703Z,16.29
2018-04-22T23:00:26.981Z,16.30
2018-04-22T23:02:55.251Z,16.28
2018-04-22T23:05:23.508Z,16.16
2018-04-22T23:07:51.786Z,16.12
2018-04-22T23:10:20.060Z,16.13
2018-04-22T23:12:48.351Z,16.10
2018-04-22T23:15:16.631Z,16.03
2018-04-22T23:17:44.914Z,16.01
2018-04-22T23:20:13.179Z,15.94
2018-04-22T23:22:41.461Z,15.38
2018-04-22T23:25:09.718Z,15.48
2018-04-22T23:27:37.984Z,15.59
2018-04-22T23:30:07.089Z,15.59
2018-04-22T23:32:35.311Z,15.60
2018-04-22T23:35:03.571Z,15.61
2018-04-22T23:37:31.852Z,15.62
2018-04-22T23:40:00.120Z,15.49
2018-04-22T23:42:28.390Z,15.49
2018-04-22T23:44:56.669Z,15.39
2018-04-22T23:47:25.046Z,15.19
2018-04-22T23:49:53.313Z,15.20
2018-04-22T23:52:21.689Z,15.27
2018-04-22T23:54:49.978Z,15.31
2018-04-22T23:57:18.254Z,15.31
2018-04-22T23:59:46.632Z,15.30
